CheckWX is a tool to help pilots better visualize weather data.  It is not intended as a substitute for an official pre-flight weather briefing.

13:34:41 UTC

KGDV TAF
Dawson Community Airport
Glendive, Montana, USA
KGDV 102320Z 1100/1124 32011KT P6SM -SN FEW023 OVC050 TEMPO 1103/1107 4SM -SN OVC020 FM110800 VRB05KT P6SM BKN020

Dec-11@
00:00 UTC

Dec-11 @ 00:00 UTC

Dec-11@
08:00 UTC

Dec-11 @ 08:00 UTC

KGDV 102320Z 1100/1124 32011KT P6SM -SN FEW023 OVC050

Expired

Wind
  • 320° at 11 KTS
Conditions
Light Snow
Cloud Levels
  • Few at 2,300' AGL
  • Overcast at 5,000' AGL

Dec-11@
03:00 UTC

Dec-11 @ 03:00 UTC

Dec-11@
07:00 UTC

Dec-11 @ 07:00 UTC

TEMPO 1103/1107 4SM -SN OVC020

Expired

Conditions
Light Snow
Cloud Levels
  • Overcast at 2,000' AGL

Dec-11@
08:00 UTC

Dec-11 @ 08:00 UTC

Dec-12@
00:00 UTC

Dec-12 @ 00:00 UTC

FM110800 VRB05KT P6SM BKN020

From

From Standard forecast or significant change

Wind
  • Variable at 5 KTS
Cloud Levels
  • Broken at 2,000' AGL